Time;durP1;ratioP1;P1;durP2;ratioP2;P2;SDS_P1;SDS_P2;PMS_P1;PMS_P2;Temp;Humidity;BMP_temperature;BMP_pressure;BME280_temperature;BME280_humidity;BME280_pressure;Samples;Min_cycle;Max_cycle;Signal;HPM_P1;HPM_P2
2022/12/26 00:01:49;;;;;;;;;;;1.80;99.90;;;;;;5014020;28;19924;-81
2022/12/26 00:04:16;;;;;;;;;;;1.90;99.90;;;;;;5017812;28;19930;-81
2022/12/26 00:06:41;;;;;;;;;;;1.90;99.90;;;;;;5020045;28;19944;-81
2022/12/26 00:09:07;;;;;;;;;;;1.90;99.90;;;;;;5013757;28;20358;-82
2022/12/26 00:11:33;;;;;;;;;;;1.90;99.90;;;;;;5013155;28;19933;-81
2022/12/26 00:14:01;;;;;;;;;;;1.90;99.90;;;;;;5014681;28;19972;-81
2022/12/26 00:16:27;;;;;;;;;;;1.90;99.90;;;;;;5020524;28;20370;-81
2022/12/26 00:18:53;;;;;;;;;;;1.90;99.90;;;;;;5014364;28;19969;-81
2022/12/26 00:21:19;;;;;;;;;;;1.80;99.90;;;;;;5016329;28;19956;-80
2022/12/26 00:23:45;;;;;;;;;;;1.80;99.90;;;;;;5018209;28;20377;-80
2022/12/26 00:26:12;;;;;;;;;;;1.80;99.90;;;;;;5013236;28;19972;-80
2022/12/26 00:28:38;;;;;;;;;;;1.80;99.90;;;;;;5015505;28;19913;-81
2022/12/26 00:31:05;;;;;;;;;;;1.80;99.90;;;;;;5013928;28;20263;-81
2022/12/26 00:33:30;;;;;;;;;;;1.70;99.90;;;;;;5015634;28;20289;-80
2022/12/26 00:36:00;;;;;;;;;;;1.70;99.90;;;;;;5014166;28;20005;-81
2022/12/26 00:38:25;;;;;;;;;;;1.70;99.90;;;;;;5022903;28;19975;-81
2022/12/26 00:40:51;;;;;;;;;;;1.70;99.90;;;;;;5014453;28;19918;-80
2022/12/26 00:43:16;;;;;;;;;;;1.70;99.90;;;;;;5012605;28;19941;-81
2022/12/26 00:45:43;;;;;;;;;;;1.60;99.90;;;;;;5044172;28;19924;-81
2022/12/26 00:48:09;;;;;;;;;;;1.60;99.90;;;;;;5015381;28;19917;-80
2022/12/26 00:50:34;;;;;;;;;;;1.60;99.90;;;;;;5044809;28;20008;-81
2022/12/26 00:53:00;;;;;;;;;;;1.60;99.90;;;;;;5023963;28;19923;-81
2022/12/26 00:55:25;;;;;;;;;;;1.60;99.90;;;;;;5020781;28;19928;-81
2022/12/26 00:57:51;;;;;;;;;;;1.50;99.90;;;;;;5017109;28;19917;-81
2022/12/26 01:00:19;;;;;;;;;;;1.50;99.90;;;;;;5043909;28;20408;-81
2022/12/26 01:02:45;;;;;;;;;;;1.50;99.90;;;;;;5013990;28;19949;-81
2022/12/26 01:05:11;;;;;;;;;;;1.50;99.90;;;;;;5011779;28;20023;-81
2022/12/26 01:07:37;;;;;;;;;;;1.60;99.90;;;;;;5013445;28;19917;-80
2022/12/26 01:10:04;;;;;;;;;;;1.50;99.90;;;;;;5013203;28;20289;-81
2022/12/26 01:12:30;;;;;;;;;;;1.50;99.90;;;;;;5014741;28;19914;-81
2022/12/26 01:14:56;;;;;;;;;;;1.50;99.90;;;;;;5013155;28;19921;-81
2022/12/26 01:17:22;;;;;;;;;;;1.40;99.90;;;;;;5012272;28;20274;-80
2022/12/26 01:19:48;;;;;;;;;;;1.40;99.90;;;;;;5011758;28;19921;-81
2022/12/26 01:22:13;;;;;;;;;;;1.40;99.90;;;;;;5013729;28;20346;-81
2022/12/26 01:24:39;;;;;;;;;;;1.40;99.90;;;;;;5013080;28;19917;-81
2022/12/26 01:27:04;;;;;;;;;;;1.40;99.90;;;;;;5011794;28;19925;-81
2022/12/26 01:29:30;;;;;;;;;;;1.40;99.90;;;;;;5013703;28;19949;-81
2022/12/26 01:31:55;;;;;;;;;;;1.40;99.90;;;;;;5027286;28;20024;-80
2022/12/26 01:34:21;;;;;;;;;;;1.40;99.90;;;;;;5015483;28;20388;-81
2022/12/26 01:36:46;;;;;;;;;;;1.40;99.90;;;;;;5012533;28;19917;-80
2022/12/26 01:39:12;;;;;;;;;;;1.40;99.90;;;;;;5013652;28;19971;-80
2022/12/26 01:41:38;;;;;;;;;;;1.30;99.90;;;;;;5013360;28;20303;-80
2022/12/26 01:44:23;;;;;;;;;;;1.30;99.90;;;;;;5008838;28;19971;-81
2022/12/26 01:46:50;;;;;;;;;;;1.30;99.90;;;;;;5012416;28;19919;-80
2022/12/26 01:49:24;;;;;;;;;;;1.30;99.90;;;;;;5010925;28;20389;-81
2022/12/26 01:51:53;;;;;;;;;;;1.30;99.90;;;;;;5013691;28;19917;-80
2022/12/26 01:54:20;;;;;;;;;;;1.30;99.90;;;;;;5014563;28;19913;-81
2022/12/26 01:56:46;;;;;;;;;;;1.30;99.90;;;;;;5010043;28;19918;-80
2022/12/26 01:59:17;;;;;;;;;;;1.40;99.90;;;;;;5012574;28;20373;-81
2022/12/26 02:01:44;;;;;;;;;;;1.40;99.90;;;;;;5014473;28;19957;-80
2022/12/26 02:06:56;;;;;;;;;;;1.40;99.90;;;;;;5012585;28;19929;-80
2022/12/26 02:09:22;;;;;;;;;;;1.40;99.90;;;;;;5012518;28;20589;-80
2022/12/26 02:11:49;;;;;;;;;;;1.30;99.90;;;;;;5014234;28;19926;-81
2022/12/26 02:14:15;;;;;;;;;;;1.30;99.90;;;;;;5016919;28;19952;-80
2022/12/26 02:16:42;;;;;;;;;;;1.30;99.90;;;;;;5011412;28;19961;-81
2022/12/26 02:19:14;;;;;;;;;;;1.20;99.90;;;;;;5011789;28;19921;-80
2022/12/26 02:22:06;;;;;;;;;;;1.20;99.90;;;;;;5046472;28;19913;-81
2022/12/26 02:24:37;;;;;;;;;;;1.30;99.90;;;;;;4995575;28;20328;-81
2022/12/26 02:27:16;;;;;;;;;;;1.20;99.90;;;;;;5018909;28;20370;-80
2022/12/26 02:29:58;;;;;;;;;;;1.20;99.90;;;;;;5016386;28;19920;-81
2022/12/26 02:32:36;;;;;;;;;;;1.20;99.90;;;;;;5026358;28;20377;-80
2022/12/26 02:35:20;;;;;;;;;;;1.20;99.90;;;;;;5016563;28;19921;-81
2022/12/26 02:38:05;;;;;;;;;;;1.20;99.90;;;;;;5015781;28;19921;-80
2022/12/26 02:40:48;;;;;;;;;;;1.20;99.90;;;;;;5015870;28;20008;-80
2022/12/26 02:43:18;;;;;;;;;;;1.10;99.90;;;;;;5015023;28;19952;-80
2022/12/26 02:48:56;;;;;;;;;;;1.10;99.90;;;;;;4998202;28;19964;-80
2022/12/26 03:14:06;;;;;;;;;;;1.10;99.90;;;;;;5042965;28;19972;-80
2022/12/26 03:19:19;;;;;;;;;;;1.10;99.90;;;;;;5015349;28;19920;-83
2022/12/26 03:21:46;;;;;;;;;;;1.10;99.90;;;;;;5014694;28;19913;-83
2022/12/26 03:24:13;;;;;;;;;;;1.00;99.90;;;;;;5021074;28;19913;-83
2022/12/26 03:26:46;;;;;;;;;;;1.00;99.90;;;;;;5018052;28;19952;-81
2022/12/26 03:32:01;;;;;;;;;;;1.00;99.90;;;;;;5017339;28;19925;-83
2022/12/26 03:34:27;;;;;;;;;;;1.10;99.90;;;;;;5014321;28;19913;-83
2022/12/26 03:36:59;;;;;;;;;;;1.00;99.90;;;;;;5013578;28;19921;-83
2022/12/26 04:19:24;;;;;;;;;;;1.00;99.90;;;;;;5017801;28;20009;-82
2022/12/26 04:44:48;;;;;;;;;;;1.00;99.90;;;;;;5020947;28;19924;-83
2022/12/26 04:47:14;;;;;;;;;;;1.00;99.90;;;;;;5013646;28;19920;-83
2022/12/26 04:52:53;;;;;;;;;;;0.90;99.90;;;;;;5004312;28;19925;-80
2022/12/26 04:55:10;;;;;;;;;;;0.90;99.90;;;;;;5014904;28;19924;-82
2022/12/26 04:57:35;;;;;;;;;;;0.90;99.90;;;;;;5012045;28;19918;-83
2022/12/26 05:00:01;;;;;;;;;;;0.90;99.90;;;;;;5026970;28;20435;-82
2022/12/26 05:11:03;;;;;;;;;;;0.90;99.90;;;;;;5013239;28;20011;-83
2022/12/26 05:13:29;;;;;;;;;;;0.90;99.90;;;;;;5012887;28;19961;-80
2022/12/26 05:29:36;;;;;;;;;;;0.80;99.90;;;;;;5010505;28;19924;-83
2022/12/26 05:32:02;;;;;;;;;;;0.80;99.90;;;;;;4994587;28;19921;-82
2022/12/26 05:34:27;;;;;;;;;;;0.80;99.90;;;;;;5015773;28;19969;-82
2022/12/26 05:36:55;;;;;;;;;;;0.80;99.90;;;;;;5014662;28;19917;-83
2022/12/26 05:39:21;;;;;;;;;;;0.70;99.90;;;;;;5012827;28;19920;-82
2022/12/26 05:41:47;;;;;;;;;;;0.80;99.90;;;;;;5011512;28;19914;-83
2022/12/26 05:44:12;;;;;;;;;;;0.70;99.90;;;;;;4995297;28;19918;-82
2022/12/26 05:46:38;;;;;;;;;;;0.70;99.90;;;;;;5011821;28;19924;-82
2022/12/26 05:49:04;;;;;;;;;;;0.70;99.90;;;;;;5013373;28;20501;-82
2022/12/26 05:51:30;;;;;;;;;;;0.70;99.90;;;;;;5009412;28;20028;-82
2022/12/26 05:53:56;;;;;;;;;;;0.70;99.90;;;;;;5000843;28;19948;-82
2022/12/26 05:56:21;;;;;;;;;;;0.70;99.90;;;;;;5016692;28;19919;-82
2022/12/26 05:58:52;;;;;;;;;;;0.70;99.90;;;;;;5017965;28;19941;-82
2022/12/26 06:01:18;;;;;;;;;;;0.60;99.90;;;;;;5020136;28;19927;-82
2022/12/26 06:03:48;;;;;;;;;;;0.60;99.90;;;;;;5018912;28;19914;-81
2022/12/26 06:06:14;;;;;;;;;;;0.60;99.90;;;;;;5017823;28;19917;-82
2022/12/26 06:08:39;;;;;;;;;;;0.70;99.90;;;;;;5018088;28;19986;-82
2022/12/26 06:11:06;;;;;;;;;;;0.70;99.90;;;;;;5029395;28;20082;-83
2022/12/26 06:13:32;;;;;;;;;;;0.70;99.90;;;;;;5018243;28;19920;-82
2022/12/26 06:15:57;;;;;;;;;;;0.70;99.90;;;;;;5017109;28;19959;-82
2022/12/26 06:18:23;;;;;;;;;;;0.70;99.90;;;;;;5018515;28;19956;-82
2022/12/26 06:20:49;;;;;;;;;;;0.70;99.90;;;;;;5049633;28;20366;-83
2022/12/26 06:23:14;;;;;;;;;;;0.70;99.90;;;;;;5015267;28;19971;-82
2022/12/26 06:25:40;;;;;;;;;;;0.70;99.90;;;;;;5014203;28;19924;-82
2022/12/26 06:28:05;;;;;;;;;;;0.70;99.90;;;;;;5016248;28;19956;-82
2022/12/26 06:30:31;;;;;;;;;;;0.70;99.90;;;;;;5021444;28;19921;-82
2022/12/26 06:32:56;;;;;;;;;;;0.60;99.90;;;;;;5022098;28;19917;-81
2022/12/26 06:35:22;;;;;;;;;;;0.60;99.90;;;;;;5000222;28;19913;-82
2022/12/26 06:37:47;;;;;;;;;;;0.60;99.90;;;;;;5017676;28;19918;-82
2022/12/26 06:40:13;;;;;;;;;;;0.60;99.90;;;;;;5039320;28;19956;-82
2022/12/26 06:42:38;;;;;;;;;;;0.70;99.90;;;;;;5025798;28;19941;-82
2022/12/26 06:45:04;;;;;;;;;;;0.70;99.90;;;;;;5013080;28;19921;-83
2022/12/26 06:47:30;;;;;;;;;;;0.70;99.90;;;;;;5010923;28;19916;-82
2022/12/26 06:49:55;;;;;;;;;;;0.70;99.90;;;;;;4999635;28;19928;-82
2022/12/26 06:52:21;;;;;;;;;;;0.60;99.90;;;;;;5018755;28;19918;-82
2022/12/26 06:54:46;;;;;;;;;;;0.70;99.90;;;;;;5017226;28;19913;-82
2022/12/26 06:57:12;;;;;;;;;;;0.60;99.90;;;;;;5018834;28;19917;-82
2022/12/26 06:59:37;;;;;;;;;;;0.60;99.90;;;;;;4999017;28;19953;-81
2022/12/26 07:02:03;;;;;;;;;;;0.60;99.90;;;;;;5018371;28;19913;-82
2022/12/26 07:04:28;;;;;;;;;;;0.60;99.90;;;;;;5012280;28;20020;-82
2022/12/26 07:06:54;;;;;;;;;;;0.60;99.90;;;;;;5015781;28;19929;-82
2022/12/26 07:09:19;;;;;;;;;;;0.60;99.90;;;;;;5015360;28;19913;-80
2022/12/26 07:11:47;;;;;;;;;;;0.60;99.90;;;;;;5018860;28;19964;-81
2022/12/26 07:14:12;;;;;;;;;;;0.50;99.90;;;;;;5014895;28;19910;-81
2022/12/26 07:16:39;;;;;;;;;;;0.60;99.90;;;;;;5018019;28;20009;-81
2022/12/26 07:19:05;;;;;;;;;;;0.60;99.90;;;;;;5013081;28;19918;-81
2022/12/26 07:21:30;;;;;;;;;;;0.60;99.90;;;;;;4998539;28;19914;-81
2022/12/26 07:23:56;;;;;;;;;;;0.60;99.90;;;;;;5012066;28;19913;-81
2022/12/26 07:26:23;;;;;;;;;;;0.50;99.90;;;;;;5017806;28;19948;-81
2022/12/26 07:28:51;;;;;;;;;;;0.50;99.90;;;;;;5047935;28;19921;-81
2022/12/26 07:31:18;;;;;;;;;;;0.60;99.90;;;;;;5016894;28;19920;-81
2022/12/26 07:33:47;;;;;;;;;;;0.60;99.90;;;;;;5016549;28;19913;-80
2022/12/26 07:36:13;;;;;;;;;;;0.60;99.90;;;;;;5015318;28;19920;-81
2022/12/26 07:38:38;;;;;;;;;;;0.60;99.90;;;;;;5015544;28;19913;-81
2022/12/26 07:41:56;;;;;;;;;;;0.60;99.90;;;;;;5016303;28;19952;-81
2022/12/26 07:43:49;;;;;;;;;;;0.70;99.90;;;;;;5015414;28;19913;-81
2022/12/26 07:46:15;;;;;;;;;;;0.70;99.90;;;;;;5014847;28;19975;-81
2022/12/26 07:48:40;;;;;;;;;;;0.60;99.90;;;;;;5015758;28;20353;-81
2022/12/26 07:51:06;;;;;;;;;;;0.60;99.90;;;;;;5015485;28;19918;-81
2022/12/26 07:53:31;;;;;;;;;;;0.60;99.90;;;;;;5015895;28;19910;-81
2022/12/26 07:55:58;;;;;;;;;;;0.60;99.90;;;;;;5015500;28;19953;-82
2022/12/26 07:58:24;;;;;;;;;;;0.60;99.90;;;;;;5014126;28;19914;-81
2022/12/26 08:00:49;;;;;;;;;;;0.60;99.90;;;;;;5013701;28;19917;-81
2022/12/26 08:03:15;;;;;;;;;;;0.60;99.90;;;;;;5014077;28;19917;-82
2022/12/26 08:05:43;;;;;;;;;;;0.60;99.90;;;;;;5015348;28;19914;-81
2022/12/26 08:08:09;;;;;;;;;;;0.60;99.90;;;;;;5045305;28;19999;-81
2022/12/26 08:10:34;;;;;;;;;;;0.60;99.90;;;;;;5011859;28;19968;-81
2022/12/26 08:13:00;;;;;;;;;;;0.70;99.90;;;;;;5011640;28;20401;-82
2022/12/26 08:15:25;;;;;;;;;;;0.70;99.90;;;;;;5013500;28;19918;-82
2022/12/26 08:17:51;;;;;;;;;;;0.60;99.90;;;;;;5013436;28;19918;-82
2022/12/26 08:20:17;;;;;;;;;;;0.60;99.90;;;;;;4992634;28;19920;-82
2022/12/26 08:22:42;;;;;;;;;;;0.60;99.90;;;;;;5012487;28;19917;-82
2022/12/26 08:25:08;;;;;;;;;;;0.60;99.90;;;;;;4996503;28;20009;-82
2022/12/26 08:27:34;;;;;;;;;;;0.60;99.90;;;;;;5013662;28;19921;-82
2022/12/26 08:29:59;;;;;;;;;;;0.60;99.90;;;;;;5013441;28;19963;-81
2022/12/26 08:32:25;;;;;;;;;;;0.60;99.90;;;;;;5014863;28;20396;-82
2022/12/26 08:34:50;;;;;;;;;;;0.70;99.90;;;;;;5013728;28;19972;-82
2022/12/26 08:37:16;;;;;;;;;;;0.70;99.90;;;;;;5013965;28;19968;-82
2022/12/26 08:39:41;;;;;;;;;;;0.70;99.90;;;;;;5014737;28;19918;-82
2022/12/26 08:42:07;;;;;;;;;;;0.70;99.90;;;;;;5013419;28;19922;-82
2022/12/26 08:44:32;;;;;;;;;;;0.70;99.90;;;;;;5013127;28;19917;-82
2022/12/26 08:46:58;;;;;;;;;;;0.70;99.90;;;;;;5012361;28;19917;-82
2022/12/26 08:49:24;;;;;;;;;;;0.80;99.90;;;;;;5014272;28;19925;-82
2022/12/26 08:51:49;;;;;;;;;;;0.80;99.90;;;;;;5013815;28;19930;-82
2022/12/26 08:54:15;;;;;;;;;;;0.80;99.90;;;;;;4996921;28;19952;-82
2022/12/26 08:56:40;;;;;;;;;;;0.80;99.90;;;;;;5014155;28;19910;-81
2022/12/26 08:59:06;;;;;;;;;;;0.80;99.90;;;;;;4996116;28;20008;-82
2022/12/26 09:01:31;;;;;;;;;;;0.90;99.90;;;;;;5013117;28;19936;-82
2022/12/26 09:03:58;;;;;;;;;;;0.90;99.90;;;;;;5045527;28;20013;-82
2022/12/26 09:06:24;;;;;;;;;;;0.90;99.90;;;;;;5009040;28;19918;-82
2022/12/26 09:08:50;;;;;;;;;;;0.80;99.90;;;;;;5011300;28;19924;-82
2022/12/26 09:11:18;;;;;;;;;;;0.90;99.90;;;;;;5013450;28;19917;-82
2022/12/26 09:13:43;;;;;;;;;;;0.90;99.90;;;;;;5013307;28;19913;-82
2022/12/26 09:16:09;;;;;;;;;;;0.90;99.90;;;;;;5012824;28;20004;-82
2022/12/26 09:18:35;;;;;;;;;;;1.00;99.90;;;;;;5014718;28;19925;-82
2022/12/26 09:21:01;;;;;;;;;;;1.00;99.90;;;;;;5012735;28;19910;-82
2022/12/26 09:23:27;;;;;;;;;;;1.10;99.90;;;;;;5012294;28;20008;-82
2022/12/26 09:25:53;;;;;;;;;;;1.00;99.90;;;;;;5011448;28;19913;-82
2022/12/26 09:28:18;;;;;;;;;;;1.00;99.90;;;;;;5012440;28;19914;-82
2022/12/26 09:30:44;;;;;;;;;;;1.00;99.90;;;;;;5014326;28;19917;-82
2022/12/26 09:33:10;;;;;;;;;;;1.00;99.90;;;;;;5017195;28;20008;-82
2022/12/26 09:35:38;;;;;;;;;;;1.00;99.90;;;;;;5016820;28;19917;-82
2022/12/26 09:38:04;;;;;;;;;;;1.10;99.90;;;;;;5013325;28;19910;-82
2022/12/26 09:40:32;;;;;;;;;;;1.10;99.90;;;;;;5000609;28;19936;-82
2022/12/26 09:43:18;;;;;;;;;;;1.20;99.90;;;;;;5013033;28;20005;-82
2022/12/26 09:45:50;;;;;;;;;;;1.30;99.90;;;;;;5017573;28;19913;-82
2022/12/26 09:48:22;;;;;;;;;;;1.40;99.90;;;;;;5015579;28;19914;-82
2022/12/26 09:50:50;;;;;;;;;;;1.50;99.90;;;;;;5016139;28;20016;-82
2022/12/26 09:53:33;;;;;;;;;;;1.50;99.90;;;;;;5017220;28;19916;-83
2022/12/26 09:56:07;;;;;;;;;;;1.50;99.90;;;;;;5012915;28;20277;-83
2022/12/26 09:58:34;;;;;;;;;;;1.50;99.90;;;;;;5016800;28;20004;-83
2022/12/26 10:01:12;;;;;;;;;;;1.60;99.90;;;;;;5017839;28;20393;-81
2022/12/26 10:03:45;;;;;;;;;;;1.60;99.90;;;;;;5016029;28;20288;-84
2022/12/26 10:06:14;;;;;;;;;;;1.60;99.90;;;;;;5016200;28;19934;-83
2022/12/26 10:08:47;;;;;;;;;;;1.70;99.90;;;;;;5018961;28;19961;-83
2022/12/26 10:11:15;;;;;;;;;;;1.80;99.90;;;;;;5017237;28;19917;-83
2022/12/26 10:13:55;;;;;;;;;;;1.90;99.90;;;;;;5016095;28;19914;-83
2022/12/26 10:16:39;;;;;;;;;;;2.00;99.90;;;;;;5047416;28;19964;-83
2022/12/26 10:19:10;;;;;;;;;;;2.10;99.90;;;;;;5017288;28;20103;-83
2022/12/26 10:21:49;;;;;;;;;;;2.20;99.90;;;;;;5013622;28;19993;-83
2022/12/26 10:24:15;;;;;;;;;;;2.30;99.90;;;;;;4998669;28;19910;-83
2022/12/26 10:26:42;;;;;;;;;;;2.40;99.90;;;;;;4998439;28;19976;-83
2022/12/26 10:29:08;;;;;;;;;;;2.50;99.90;;;;;;4998665;28;19909;-83
2022/12/26 10:31:33;;;;;;;;;;;2.60;99.90;;;;;;4998256;28;20421;-84
2022/12/26 10:34:04;;;;;;;;;;;2.70;99.90;;;;;;4998429;28;19910;-82
2022/12/26 10:36:40;;;;;;;;;;;2.80;99.90;;;;;;4997345;28;19917;-83
2022/12/26 10:39:13;;;;;;;;;;;2.90;99.90;;;;;;5011672;28;19979;-82
2022/12/26 10:41:45;;;;;;;;;;;3.00;99.90;;;;;;5013828;28;19910;-84
2022/12/26 10:44:11;;;;;;;;;;;3.10;99.90;;;;;;5016931;28;19932;-84
2022/12/26 10:46:58;;;;;;;;;;;3.20;99.90;;;;;;5016094;28;19916;-83
2022/12/26 10:49:24;;;;;;;;;;;3.20;99.90;;;;;;5016625;28;20289;-83
2022/12/26 10:51:51;;;;;;;;;;;3.30;99.90;;;;;;5017835;28;20293;-83
2022/12/26 10:54:18;;;;;;;;;;;3.40;99.90;;;;;;5017574;28;20262;-84
2022/12/26 10:56:46;;;;;;;;;;;3.50;99.90;;;;;;5017720;28;19909;-83
2022/12/26 10:59:22;;;;;;;;;;;3.60;99.90;;;;;;5017539;28;20385;-83
2022/12/26 11:01:48;;;;;;;;;;;3.70;99.90;;;;;;5017391;28;20258;-83
2022/12/26 11:04:19;;;;;;;;;;;3.80;99.90;;;;;;5017088;28;19914;-84
2022/12/26 11:06:46;;;;;;;;;;;3.90;99.90;;;;;;5015564;28;19917;-83
2022/12/26 11:09:23;;;;;;;;;;;4.00;99.90;;;;;;5016777;28;20404;-84
2022/12/26 11:11:51;;;;;;;;;;;4.10;99.90;;;;;;5017034;28;19920;-83
2022/12/26 11:14:29;;;;;;;;;;;4.20;99.90;;;;;;5015012;28;19913;-83
2022/12/26 11:16:56;;;;;;;;;;;4.30;99.90;;;;;;5015074;28;19915;-83
2022/12/26 11:19:25;;;;;;;;;;;4.40;99.90;;;;;;5016577;28;19914;-83
2022/12/26 11:21:50;;;;;;;;;;;4.40;99.90;;;;;;5016673;28;20326;-84
2022/12/26 11:24:18;;;;;;;;;;;4.50;99.90;;;;;;5015830;28;19964;-84
2022/12/26 11:26:44;;;;;;;;;;;4.60;99.90;;;;;;5016748;28;19909;-84
2022/12/26 11:29:11;;;;;;;;;;;4.60;99.90;;;;;;5016362;28;19909;-83
2022/12/26 11:31:38;;;;;;;;;;;4.60;99.90;;;;;;5016724;28;19945;-83
2022/12/26 11:34:14;;;;;;;;;;;4.70;99.90;;;;;;5014583;28;19914;-83
2022/12/26 11:36:44;;;;;;;;;;;4.80;99.90;;;;;;5014537;28;19962;-84
2022/12/26 11:39:27;;;;;;;;;;;4.80;99.90;;;;;;5016467;28;19909;-84
2022/12/26 11:41:53;;;;;;;;;;;4.90;99.90;;;;;;5049072;28;19956;-85
2022/12/26 11:44:22;;;;;;;;;;;5.00;99.90;;;;;;5015130;28;19917;-84
2022/12/26 11:46:54;;;;;;;;;;;5.10;99.90;;;;;;5048104;28;20254;-83
2022/12/26 11:49:22;;;;;;;;;;;5.20;99.90;;;;;;5014773;28;19917;-84
2022/12/26 11:51:49;;;;;;;;;;;5.20;99.90;;;;;;5015878;28;20405;-83
2022/12/26 11:54:23;;;;;;;;;;;5.30;99.90;;;;;;5014056;28;20290;-84
2022/12/26 11:56:58;;;;;;;;;;;5.40;99.90;;;;;;5016157;28;20294;-84
2022/12/26 11:59:23;;;;;;;;;;;5.40;99.90;;;;;;5015221;28;19992;-83
2022/12/26 12:02:09;;;;;;;;;;;5.50;99.90;;;;;;5015150;28;20400;-83
2022/12/26 12:04:34;;;;;;;;;;;5.60;99.90;;;;;;5015151;28;19910;-83
2022/12/26 12:07:05;;;;;;;;;;;5.70;99.90;;;;;;5015454;28;19928;-84
2022/12/26 12:09:41;;;;;;;;;;;5.70;99.90;;;;;;5015533;28;19920;-84
2022/12/26 12:12:06;;;;;;;;;;;5.80;99.90;;;;;;5014082;28;20370;-85
2022/12/26 12:14:59;;;;;;;;;;;5.90;99.90;;;;;;5008775;28;20004;-84
2022/12/26 12:17:25;;;;;;;;;;;6.00;99.90;;;;;;5010300;28;19917;-84
2022/12/26 12:19:58;;;;;;;;;;;6.00;99.90;;;;;;5015148;28;19914;-83
2022/12/26 12:22:42;;;;;;;;;;;6.00;99.90;;;;;;5014077;28;20569;-84
2022/12/26 12:25:11;;;;;;;;;;;6.10;99.90;;;;;;5027250;28;20003;-84
2022/12/26 12:27:42;;;;;;;;;;;6.10;99.90;;;;;;5015484;28;20000;-83
2022/12/26 12:30:14;;;;;;;;;;;6.10;99.90;;;;;;5014998;28;19957;-83
2022/12/26 12:32:42;;;;;;;;;;;6.10;99.90;;;;;;5014982;28;19924;-83
2022/12/26 12:35:17;;;;;;;;;;;6.10;99.90;;;;;;5014106;28;19917;-83
2022/12/26 12:38:00;;;;;;;;;;;6.20;99.90;;;;;;5015047;28;19913;-84
2022/12/26 12:40:44;;;;;;;;;;;6.30;99.90;;;;;;5015521;28;19913;-84
2022/12/26 12:43:29;;;;;;;;;;;6.40;99.90;;;;;;5014170;28;19910;-83
2022/12/26 12:46:13;;;;;;;;;;;6.50;99.90;;;;;;5014358;28;20285;-83
2022/12/26 12:48:38;;;;;;;;;;;6.50;99.90;;;;;;5028467;28;20005;-84
2022/12/26 12:51:26;;;;;;;;;;;6.60;99.90;;;;;;4996594;28;19949;-83
2022/12/26 12:54:01;;;;;;;;;;;6.60;99.90;;;;;;5013956;28;19914;-84
2022/12/26 12:56:36;;;;;;;;;;;6.70;99.90;;;;;;5015080;28;19913;-84
2022/12/26 12:59:16;;;;;;;;;;;6.70;99.90;;;;;;5013178;28;19914;-83
2022/12/26 13:01:43;;;;;;;;;;;6.80;99.90;;;;;;5045380;28;19913;-84
2022/12/26 13:04:18;;;;;;;;;;;6.80;99.90;;;;;;5015663;28;19917;-84
2022/12/26 13:06:47;;;;;;;;;;;6.80;99.90;;;;;;5013428;28;20397;-84
2022/12/26 13:09:24;;;;;;;;;;;6.90;99.90;;;;;;5013862;28;19921;-84
2022/12/26 13:11:52;;;;;;;;;;;6.90;99.90;;;;;;5029708;28;20016;-84
2022/12/26 13:14:19;;;;;;;;;;;6.90;99.90;;;;;;5012124;28;20060;-84
2022/12/26 13:16:47;;;;;;;;;;;6.90;99.90;;;;;;5013661;28;19913;-84
2022/12/26 13:19:23;;;;;;;;;;;6.90;99.90;;;;;;5014402;28;20362;-83
2022/12/26 13:21:50;;;;;;;;;;;6.90;99.90;;;;;;5015934;28;19917;-84
2022/12/26 13:24:22;;;;;;;;;;;6.90;99.90;;;;;;4999136;28;19914;-84
2022/12/26 13:27:04;;;;;;;;;;;6.90;99.90;;;;;;5015504;28;20362;-83
2022/12/26 13:29:30;;;;;;;;;;;6.90;99.90;;;;;;5015553;28;19918;-83
2022/12/26 13:31:57;;;;;;;;;;;6.90;99.90;;;;;;5013632;28;19922;-83
2022/12/26 13:34:22;;;;;;;;;;;6.90;99.90;;;;;;5012660;28;19956;-82
2022/12/26 13:36:49;;;;;;;;;;;6.90;99.90;;;;;;5012833;28;19917;-83
2022/12/26 13:39:26;;;;;;;;;;;7.00;99.90;;;;;;5010173;28;20004;-83
2022/12/26 13:44:37;;;;;;;;;;;7.00;99.90;;;;;;5016341;28;19928;-83
2022/12/26 13:47:02;;;;;;;;;;;6.90;99.90;;;;;;5017022;28;19922;-84
2022/12/26 13:49:38;;;;;;;;;;;6.90;99.90;;;;;;5016877;28;20016;-84
2022/12/26 13:52:10;;;;;;;;;;;6.80;99.90;;;;;;5016271;28;19921;-84
2022/12/26 13:54:56;;;;;;;;;;;6.80;99.90;;;;;;5015416;28;19919;-84
2022/12/26 13:57:43;;;;;;;;;;;6.80;99.90;;;;;;5013382;28;19960;-84
2022/12/26 14:00:16;;;;;;;;;;;6.80;99.90;;;;;;5009464;28;19913;-84
2022/12/26 14:02:45;;;;;;;;;;;6.80;99.90;;;;;;5016228;28;20001;-85
2022/12/26 14:05:29;;;;;;;;;;;6.70;99.90;;;;;;5016635;28;19968;-84
2022/12/26 14:08:00;;;;;;;;;;;6.70;99.90;;;;;;5015259;28;20300;-83
2022/12/26 14:10:44;;;;;;;;;;;6.60;99.90;;;;;;5016518;28;19917;-84
2022/12/26 14:13:29;;;;;;;;;;;6.70;99.90;;;;;;5014902;28;19920;-84
2022/12/26 14:16:00;;;;;;;;;;;6.60;99.90;;;;;;5014154;28;20004;-84
2022/12/26 14:18:35;;;;;;;;;;;6.70;99.90;;;;;;5015475;28;21482;-84
2022/12/26 14:21:19;;;;;;;;;;;6.60;99.90;;;;;;5011602;28;19920;-84
2022/12/26 14:23:52;;;;;;;;;;;6.70;99.90;;;;;;5018908;28;19914;-84
2022/12/26 14:26:37;;;;;;;;;;;6.70;99.90;;;;;;5012893;28;20287;-84
2022/12/26 14:29:03;;;;;;;;;;;6.80;99.90;;;;;;5017336;28;19913;-84
2022/12/26 14:31:31;;;;;;;;;;;6.80;99.90;;;;;;5017723;28;19924;-84
2022/12/26 14:34:26;;;;;;;;;;;6.80;99.90;;;;;;5017689;28;19914;-84
2022/12/26 14:36:58;;;;;;;;;;;6.90;99.90;;;;;;5027535;28;19920;-84
2022/12/26 14:39:24;;;;;;;;;;;6.90;99.90;;;;;;5010189;28;19921;-84
2022/12/26 14:45:00;;;;;;;;;;;6.90;99.90;;;;;;5020699;28;20002;-85
2022/12/26 14:47:37;;;;;;;;;;;6.80;99.90;;;;;;5008370;28;20008;-84
2022/12/26 14:50:21;;;;;;;;;;;6.70;99.90;;;;;;5017250;28;19921;-84
2022/12/26 14:52:48;;;;;;;;;;;6.80;99.90;;;;;;5018492;28;19924;-84
2022/12/26 14:55:41;;;;;;;;;;;6.70;99.90;;;;;;5017694;28;19924;-85
2022/12/26 14:58:29;;;;;;;;;;;6.70;99.90;;;;;;5018478;28;19914;-83
2022/12/26 15:00:55;;;;;;;;;;;6.60;99.90;;;;;;5016459;28;19913;-84
2022/12/26 15:03:43;;;;;;;;;;;6.60;99.90;;;;;;5015152;28;19967;-83
2022/12/26 15:06:14;;;;;;;;;;;6.60;99.90;;;;;;4988086;28;19992;-83
2022/12/26 15:08:55;;;;;;;;;;;6.50;99.90;;;;;;4999339;28;19945;-83
2022/12/26 15:11:39;;;;;;;;;;;6.50;99.90;;;;;;5015719;28;19913;-83
2022/12/26 15:14:30;;;;;;;;;;;6.50;99.90;;;;;;5018884;28;19932;-83
2022/12/26 15:17:05;;;;;;;;;;;6.40;99.90;;;;;;5016754;28;19933;-84
2022/12/26 15:20:09;;;;;;;;;;;6.50;99.90;;;;;;5043607;22;19925;-87
2022/12/26 15:22:50;;;;;;;;;;;6.50;99.90;;;;;;4998239;28;20000;-88
2022/12/26 15:25:30;;;;;;;;;;;6.40;99.90;;;;;;4998092;28;19910;-88
2022/12/26 15:27:55;;;;;;;;;;;6.30;99.90;;;;;;5019207;28;19913;-88
2022/12/26 15:30:24;;;;;;;;;;;6.20;99.90;;;;;;5035604;28;19909;-88
2022/12/26 15:32:55;;;;;;;;;;;6.30;99.90;;;;;;5035800;28;20273;-88
2022/12/26 15:35:24;;;;;;;;;;;6.20;99.90;;;;;;5031001;28;20436;-88
2022/12/26 15:38:08;;;;;;;;;;;6.20;99.90;;;;;;5032098;28;20380;-88
2022/12/26 15:40:49;;;;;;;;;;;6.10;99.90;;;;;;5034244;28;19909;-88
2022/12/26 15:43:22;;;;;;;;;;;6.10;99.90;;;;;;5035156;28;19963;-88
2022/12/26 15:45:54;;;;;;;;;;;6.00;99.90;;;;;;5034793;28;19955;-88
2022/12/26 15:48:32;;;;;;;;;;;6.00;99.90;;;;;;5031113;28;19910;-88
2022/12/26 15:50:57;;;;;;;;;;;6.00;99.90;;;;;;5014753;28;20380;-87
2022/12/26 15:53:42;;;;;;;;;;;6.00;99.90;;;;;;5015312;28;19914;-88
2022/12/26 15:56:16;;;;;;;;;;;6.00;99.90;;;;;;5016276;28;20004;-87
2022/12/26 15:58:42;;;;;;;;;;;6.00;99.90;;;;;;5014289;28;20392;-87
2022/12/26 16:01:08;;;;;;;;;;;5.90;99.90;;;;;;5014483;28;19910;-88
2022/12/26 16:03:50;;;;;;;;;;;5.90;99.90;;;;;;4998157;28;19913;-88
2022/12/26 16:06:30;;;;;;;;;;;5.80;99.90;;;;;;5014649;28;20332;-88
2022/12/26 16:08:59;;;;;;;;;;;5.80;99.90;;;;;;5014837;28;20066;-88
2022/12/26 16:11:29;;;;;;;;;;;5.70;99.90;;;;;;5025656;28;19913;-89
2022/12/26 16:13:59;;;;;;;;;;;5.70;99.90;;;;;;5034226;28;20280;-87
2022/12/26 16:16:26;;;;;;;;;;;5.60;99.90;;;;;;5030731;28;19909;-88
2022/12/26 16:18:52;;;;;;;;;;;5.70;99.90;;;;;;5031654;28;19914;-89
2022/12/26 16:24:06;;;;;;;;;;;5.60;99.90;;;;;;5035621;28;19932;-88
2022/12/26 16:26:33;;;;;;;;;;;5.60;99.90;;;;;;5031271;28;19910;-88
2022/12/26 16:28:59;;;;;;;;;;;5.50;99.90;;;;;;5032567;28;19963;-86
2022/12/26 16:31:26;;;;;;;;;;;5.50;99.90;;;;;;5017824;28;20015;-86
2022/12/26 16:33:53;;;;;;;;;;;5.50;99.90;;;;;;5035632;28;19957;-87
2022/12/26 16:36:23;;;;;;;;;;;5.40;99.90;;;;;;5034049;28;19909;-86
2022/12/26 16:38:49;;;;;;;;;;;5.40;99.90;;;;;;5032989;28;19964;-87
2022/12/26 16:41:20;;;;;;;;;;;5.30;99.90;;;;;;5025035;28;20269;-86
2022/12/26 16:43:46;;;;;;;;;;;5.30;99.90;;;;;;5034132;28;19916;-85
2022/12/26 16:46:13;;;;;;;;;;;5.30;99.90;;;;;;5017872;28;19913;-85
2022/12/26 16:48:39;;;;;;;;;;;5.20;99.90;;;;;;5035843;28;20369;-86
2022/12/26 16:51:06;;;;;;;;;;;5.20;99.90;;;;;;5035172;28;19913;-86
2022/12/26 16:53:34;;;;;;;;;;;5.10;99.90;;;;;;5028605;28;19953;-85
2022/12/26 16:56:15;;;;;;;;;;;5.10;99.90;;;;;;5034519;28;19917;-86
2022/12/26 16:58:41;;;;;;;;;;;5.00;99.90;;;;;;5033231;28;19909;-86